createdAt,value
2022-10-15T00:01:07.772Z,8.69
2022-10-15T00:03:37.005Z,8.77
2022-10-15T00:06:05.980Z,8.75
2022-10-15T00:08:33.292Z,8.80
2022-10-15T00:11:21.938Z,9.21
2022-10-15T00:13:50.457Z,9.13
2022-10-15T00:16:20.117Z,9.20
2022-10-15T00:18:47.374Z,9.13
2022-10-15T00:21:16.100Z,9.15
2022-10-15T00:23:46.769Z,9.28
2022-10-15T00:26:20.099Z,9.30
2022-10-15T00:28:50.884Z,9.25
2022-10-15T00:31:24.632Z,9.24
2022-10-15T00:33:53.152Z,9.26
2022-10-15T00:36:22.997Z,9.29
2022-10-15T00:38:50.970Z,9.29
2022-10-15T00:41:31.148Z,9.37
2022-10-15T00:44:00.637Z,9.35
2022-10-15T00:46:38.146Z,9.28
2022-10-15T00:49:26.766Z,9.27
2022-10-15T00:52:14.299Z,9.21
2022-10-15T00:54:47.989Z,9.11
2022-10-15T00:57:15.797Z,9.10
2022-10-15T00:59:57.565Z,9.03
2022-10-15T01:02:25.293Z,8.93
2022-10-15T01:04:56.117Z,8.87
2022-10-15T01:07:23.235Z,8.82
2022-10-15T01:09:50.907Z,8.78
2022-10-15T01:12:28.302Z,8.71
2022-10-15T01:15:16.878Z,8.65
2022-10-15T01:17:50.840Z,8.64
2022-10-15T01:20:41.242Z,8.67
2022-10-15T01:23:26.824Z,8.81
2022-10-15T01:26:40.601Z,8.91
2022-10-15T01:29:32.379Z,9.16
2022-10-15T01:32:08.042Z,9.21
2022-10-15T01:34:44.091Z,9.29
2022-10-15T01:37:42.152Z,9.34
2022-10-15T01:40:21.992Z,9.38
2022-10-15T01:43:02.989Z,9.46
2022-10-15T01:45:54.051Z,9.53
2022-10-15T01:48:44.331Z,9.54
2022-10-15T01:51:15.475Z,9.59
2022-10-15T01:53:46.130Z,9.69
2022-10-15T01:56:20.802Z,9.73
2022-10-15T01:58:51.100Z,9.74
2022-10-15T02:01:21.675Z,9.81
2022-10-15T02:03:51.207Z,9.86
2022-10-15T02:06:31.158Z,9.84
2022-10-15T02:09:23.633Z,9.87
2022-10-15T02:12:16.694Z,9.91
2022-10-15T02:14:53.234Z,9.88
2022-10-15T02:17:32.131Z,9.89
2022-10-15T02:20:12.512Z,9.90
2022-10-15T02:22:53.244Z,9.91
2022-10-15T02:25:24.021Z,9.88
2022-10-15T02:27:54.941Z,9.91
2022-10-15T02:30:25.910Z,9.92
2022-10-15T02:33:00.564Z,9.93
2022-10-15T02:35:28.596Z,9.89
2022-10-15T02:37:59.606Z,9.85
2022-10-15T02:40:29.059Z,9.81
2022-10-15T02:43:00.275Z,9.81
2022-10-15T02:45:29.787Z,9.79
2022-10-15T02:47:56.834Z,9.77
2022-10-15T02:50:26.266Z,9.84
2022-10-15T02:52:53.343Z,9.85
2022-10-15T02:55:22.572Z,9.87
2022-10-15T02:57:52.302Z,9.92
2022-10-15T03:00:19.290Z,9.91
2022-10-15T03:02:49.106Z,9.94
2022-10-15T03:05:19.038Z,9.94
2022-10-15T03:07:46.760Z,10.01
2022-10-15T03:10:15.087Z,9.98
2022-10-15T03:12:44.659Z,10.03
2022-10-15T03:15:12.968Z,10.00
2022-10-15T03:17:41.100Z,10.07
2022-10-15T03:20:08.487Z,10.06
2022-10-15T03:22:39.866Z,10.07
2022-10-15T03:25:07.102Z,10.08
2022-10-15T03:27:36.636Z,10.08
2022-10-15T03:30:11.087Z,10.08
2022-10-15T03:32:39.484Z,10.10
2022-10-15T03:35:06.976Z,10.11
2022-10-15T03:37:34.070Z,10.17
2022-10-15T03:40:01.283Z,10.16
2022-10-15T03:42:28.156Z,10.24
2022-10-15T03:44:55.300Z,10.23
2022-10-15T03:47:24.813Z,10.23
2022-10-15T03:49:51.666Z,10.27
2022-10-15T03:52:19.981Z,10.31
2022-10-15T03:54:48.414Z,10.30
2022-10-15T03:57:18.492Z,10.29
2022-10-15T03:59:50.654Z,10.30
2022-10-15T04:02:18.946Z,10.31
2022-10-15T04:04:48.504Z,10.32
2022-10-15T04:07:15.620Z,10.39
2022-10-15T04:09:42.553Z,10.43
2022-10-15T04:12:22.632Z,10.49
2022-10-15T04:14:50.155Z,10.49
2022-10-15T04:17:17.903Z,10.47
2022-10-15T04:19:45.993Z,10.48
2022-10-15T04:22:14.909Z,10.52
2022-10-15T04:24:50.208Z,10.50
2022-10-15T04:27:26.470Z,10.49
2022-10-15T04:30:01.521Z,10.48
2022-10-15T04:32:28.863Z,10.49
2022-10-15T04:34:56.361Z,10.47
2022-10-15T04:37:36.693Z,10.52
2022-10-15T04:40:05.103Z,10.53
2022-10-15T04:42:32.442Z,10.55
2022-10-15T04:44:59.598Z,10.56
2022-10-15T04:47:26.719Z,10.57
2022-10-15T04:50:08.404Z,10.62
2022-10-15T04:53:07.470Z,10.66
2022-10-15T04:55:38.346Z,10.62
2022-10-15T04:58:05.963Z,10.65
2022-10-15T05:00:33.172Z,10.65
2022-10-15T05:03:18.778Z,10.64
2022-10-15T05:05:54.410Z,10.66
2022-10-15T05:08:21.864Z,10.66
2022-10-15T05:11:23.623Z,10.72
2022-10-15T05:13:58.131Z,10.73
2022-10-15T05:16:27.947Z,10.78
2022-10-15T05:19:00.490Z,10.80
2022-10-15T05:21:30.043Z,10.81
2022-10-15T05:24:01.098Z,10.86
2022-10-15T05:26:46.359Z,10.86
2022-10-15T05:29:15.284Z,10.89
2022-10-15T05:31:45.055Z,10.88
2022-10-15T05:34:17.881Z,10.87
2022-10-15T05:36:51.035Z,10.89
2022-10-15T05:39:20.520Z,10.92
2022-10-15T05:41:50.764Z,10.93
2022-10-15T05:44:20.382Z,10.93
2022-10-15T05:46:47.610Z,10.95
2022-10-15T05:49:21.692Z,10.95
2022-10-15T05:51:59.160Z,10.95
2022-10-15T05:54:43.519Z,10.98
2022-10-15T05:57:10.691Z,10.97
2022-10-15T05:59:37.850Z,10.98
2022-10-15T06:02:07.087Z,11.01
2022-10-15T06:04:35.820Z,11.02
2022-10-15T06:07:05.341Z,11.06
2022-10-15T06:09:32.684Z,11.13
2022-10-15T06:12:02.021Z,11.20
2022-10-15T06:14:30.262Z,11.30
2022-10-15T06:16:57.223Z,11.30
2022-10-15T06:19:24.335Z,11.33
2022-10-15T06:21:51.223Z,11.32
2022-10-15T06:24:20.372Z,11.33
2022-10-15T06:26:47.438Z,11.36
2022-10-15T06:29:14.463Z,11.39
2022-10-15T06:31:41.409Z,11.43
2022-10-15T06:34:08.535Z,11.48
2022-10-15T06:36:35.519Z,11.59
2022-10-15T06:39:04.744Z,11.68
2022-10-15T06:41:32.194Z,11.79
2022-10-15T06:43:59.112Z,11.86
2022-10-15T06:46:26.166Z,11.94
2022-10-15T06:48:54.536Z,12.05
2022-10-15T06:51:21.450Z,12.17
2022-10-15T06:53:50.605Z,12.29
2022-10-15T06:56:17.871Z,12.41
2022-10-15T06:58:45.102Z,12.51
2022-10-15T07:01:12.066Z,12.59
2022-10-15T07:03:39.312Z,12.67
2022-10-15T07:06:08.756Z,12.73
2022-10-15T07:08:38.741Z,12.81
2022-10-15T07:11:10.355Z,12.81
2022-10-15T07:13:38.580Z,12.83
2022-10-15T07:16:10.480Z,12.83
2022-10-15T07:18:38.254Z,12.80
2022-10-15T07:21:07.432Z,12.87
2022-10-15T07:23:34.724Z,12.93
2022-10-15T07:26:02.459Z,13.03
2022-10-15T07:28:29.714Z,13.05
2022-10-15T07:31:04.941Z,13.11
2022-10-15T07:33:36.034Z,13.11
2022-10-15T07:36:08.219Z,13.16
2022-10-15T07:38:35.980Z,13.17
2022-10-15T07:41:04.830Z,13.21
2022-10-15T07:43:33.346Z,13.31
2022-10-15T07:46:01.291Z,13.41
2022-10-15T07:48:28.378Z,13.45
2022-10-15T07:51:00.113Z,13.56
2022-10-15T07:53:31.347Z,13.65
2022-10-15T07:56:02.188Z,13.78
2022-10-15T07:58:34.781Z,13.89
2022-10-15T08:01:02.967Z,14.02
2022-10-15T08:03:30.982Z,14.24
2022-10-15T08:06:03.107Z,14.33
2022-10-15T08:08:30.355Z,14.25
2022-10-15T08:10:57.750Z,14.27
2022-10-15T08:13:28.246Z,14.28
2022-10-15T08:15:57.801Z,14.17
2022-10-15T08:18:27.684Z,14.19
2022-10-15T08:20:54.728Z,14.20
2022-10-15T08:23:22.115Z,14.16
2022-10-15T08:25:49.040Z,14.21
2022-10-15T08:28:18.469Z,14.21
2022-10-15T08:30:47.955Z,14.18
2022-10-15T08:33:17.586Z,14.07
2022-10-15T08:35:44.750Z,14.26
2022-10-15T08:38:14.832Z,14.35
2022-10-15T08:40:54.818Z,14.41
2022-10-15T08:43:34.791Z,14.63
2022-10-15T08:46:11.599Z,14.78
2022-10-15T08:48:44.601Z,14.80
2022-10-15T08:51:17.127Z,14.67
2022-10-15T08:53:49.702Z,14.64
2022-10-15T08:56:28.723Z,14.78
2022-10-15T08:59:04.767Z,14.89
2022-10-15T09:01:40.021Z,14.90
2022-10-15T09:07:13.860Z,14.93
2022-10-15T09:10:14.832Z,15.04
2022-10-15T09:12:54.267Z,15.17
2022-10-15T09:15:26.913Z,15.16
2022-10-15T09:17:55.951Z,15.11
2022-10-15T09:20:37.125Z,15.13
2022-10-15T09:23:14.045Z,15.19
2022-10-15T09:25:44.889Z,15.29
2022-10-15T09:28:18.058Z,15.34
2022-10-15T09:30:52.718Z,15.41
2022-10-15T09:33:28.931Z,15.39
2022-10-15T09:36:26.167Z,15.48
2022-10-15T09:39:09.139Z,15.53
2022-10-15T09:41:56.418Z,15.62
2022-10-15T09:44:28.570Z,15.58
2022-10-15T09:46:55.744Z,15.65
2022-10-15T09:49:31.351Z,15.63
2022-10-15T09:52:16.231Z,15.55
2022-10-15T09:54:58.842Z,15.66
2022-10-15T09:57:26.949Z,15.82
2022-10-15T10:00:03.228Z,15.87
2022-10-15T10:02:39.541Z,15.91
2022-10-15T10:05:19.250Z,15.88
2022-10-15T10:07:46.651Z,15.93
2022-10-15T10:10:24.965Z,15.88
2022-10-15T10:12:53.080Z,15.76
2022-10-15T10:15:41.798Z,15.64
2022-10-15T10:18:19.696Z,15.50
2022-10-15T10:20:59.365Z,15.47
2022-10-15T10:23:36.855Z,15.42
2022-10-15T10:26:11.242Z,15.41
2022-10-15T10:28:57.086Z,15.40
2022-10-15T10:31:42.725Z,15.31
2022-10-15T10:34:17.641Z,15.36
2022-10-15T10:36:51.341Z,15.35
2022-10-15T10:39:21.164Z,15.40
2022-10-15T10:41:52.712Z,15.50
2022-10-15T10:44:22.960Z,15.63
2022-10-15T10:47:08.331Z,15.74
2022-10-15T10:49:41.712Z,15.75
2022-10-15T10:52:31.282Z,15.80
2022-10-15T10:55:05.594Z,15.83
2022-10-15T10:57:32.474Z,15.77
2022-10-15T11:00:04.748Z,15.85
2022-10-15T11:02:33.921Z,15.88
2022-10-15T11:05:01.115Z,15.97
2022-10-15T11:07:50.138Z,16.03
2022-10-15T11:10:21.481Z,16.11
2022-10-15T11:12:58.740Z,16.06
2022-10-15T11:15:55.293Z,16.13
2022-10-15T11:18:34.425Z,16.13
2022-10-15T11:21:25.556Z,16.16
2022-10-15T11:24:33.463Z,16.08
2022-10-15T11:27:39.761Z,15.93
2022-10-15T11:30:25.648Z,15.74
2022-10-15T11:33:07.494Z,15.59
2022-10-15T11:35:59.789Z,15.37
2022-10-15T11:38:50.967Z,15.08
2022-10-15T11:41:47.413Z,14.85
2022-10-15T11:44:27.905Z,14.72
2022-10-15T11:47:13.016Z,14.58
2022-10-15T11:49:55.421Z,14.46
2022-10-15T11:52:47.608Z,14.26
2022-10-15T11:55:15.765Z,14.24
2022-10-15T11:57:47.520Z,14.21
2022-10-15T12:00:39.925Z,14.23
2022-10-15T12:03:18.399Z,14.18
2022-10-15T12:06:00.837Z,14.17
2022-10-15T12:08:34.956Z,14.06
2022-10-15T12:11:30.878Z,14.02
2022-10-15T12:14:28.346Z,13.96
2022-10-15T12:19:50.654Z,13.87
2022-10-15T12:22:37.980Z,13.86
2022-10-15T12:25:26.216Z,13.86
2022-10-15T12:28:14.072Z,13.85
2022-10-15T12:30:43.392Z,13.92
2022-10-15T12:33:32.841Z,13.95
2022-10-15T12:36:10.054Z,13.95
2022-10-15T12:38:40.232Z,13.92
2022-10-15T12:41:10.801Z,13.94
2022-10-15T12:43:44.774Z,13.94
2022-10-15T12:46:13.387Z,13.94
2022-10-15T12:48:43.788Z,13.92
2022-10-15T12:51:30.945Z,13.91
2022-10-15T12:54:00.410Z,13.83
2022-10-15T12:56:53.789Z,13.79
2022-10-15T12:59:53.974Z,13.80
2022-10-15T13:05:28.713Z,13.79
2022-10-15T13:08:00.821Z,13.81
2022-10-15T13:10:33.051Z,13.80
2022-10-15T13:13:05.117Z,13.80
2022-10-15T13:15:34.360Z,13.81
2022-10-15T13:18:08.536Z,13.80
2022-10-15T13:20:44.434Z,13.77
2022-10-15T13:23:30.080Z,13.78
2022-10-15T13:26:25.721Z,13.77
2022-10-15T13:28:56.869Z,13.78
2022-10-15T13:31:31.648Z,13.78
2022-10-15T13:34:20.091Z,13.78
2022-10-15T13:36:49.945Z,13.78
2022-10-15T13:39:43.387Z,13.82
2022-10-15T13:42:23.219Z,13.80
2022-10-15T13:45:03.256Z,13.80
2022-10-15T13:47:32.459Z,13.79
2022-10-15T13:50:28.778Z,13.79
2022-10-15T13:53:22.748Z,13.81
2022-10-15T13:55:52.703Z,13.81
2022-10-15T13:58:26.443Z,13.78
2022-10-15T14:01:14.031Z,13.75
2022-10-15T14:04:02.741Z,13.73
2022-10-15T14:06:34.344Z,13.71
2022-10-15T14:09:15.061Z,13.72
2022-10-15T14:11:42.050Z,13.73
2022-10-15T14:14:27.931Z,13.72
2022-10-15T14:16:56.538Z,13.76
2022-10-15T14:19:30.205Z,13.77
2022-10-15T14:21:58.881Z,13.76
2022-10-15T14:24:39.567Z,13.77
2022-10-15T14:27:20.208Z,13.80
2022-10-15T14:29:50.565Z,13.77
2022-10-15T14:32:27.518Z,13.80
2022-10-15T14:34:59.991Z,13.83
2022-10-15T14:37:47.206Z,13.83
2022-10-15T14:40:18.974Z,13.85
2022-10-15T14:43:03.738Z,13.83
2022-10-15T14:45:42.090Z,13.82
2022-10-15T14:48:20.659Z,13.84
2022-10-15T14:50:47.912Z,13.85
2022-10-15T14:53:21.953Z,13.85
2022-10-15T14:55:58.737Z,13.88
2022-10-15T14:58:28.246Z,13.85
2022-10-15T15:01:02.017Z,13.87
2022-10-15T15:03:40.569Z,13.89
2022-10-15T15:06:09.134Z,13.89
2022-10-15T15:08:36.383Z,13.89
2022-10-15T15:11:06.923Z,13.90
2022-10-15T15:13:39.946Z,13.91
2022-10-15T15:16:11.660Z,13.88
2022-10-15T15:18:38.950Z,13.86
2022-10-15T15:21:10.683Z,13.84
2022-10-15T15:23:37.748Z,13.87
2022-10-15T15:26:07.309Z,13.87
2022-10-15T15:28:34.343Z,13.88
2022-10-15T15:31:21.855Z,13.86
2022-10-15T15:33:49.178Z,13.85
2022-10-15T15:36:20.958Z,13.86
2022-10-15T15:38:50.766Z,13.85
2022-10-15T15:41:23.951Z,13.81
2022-10-15T15:43:51.719Z,13.80
2022-10-15T15:46:19.017Z,13.78
2022-10-15T15:48:46.032Z,13.77
2022-10-15T15:51:19.329Z,13.77
2022-10-15T15:53:46.618Z,13.76
2022-10-15T15:56:14.046Z,13.74
2022-10-15T15:58:41.125Z,13.73
2022-10-15T16:01:08.573Z,13.76
2022-10-15T16:03:38.426Z,13.74
2022-10-15T16:06:07.421Z,13.70
2022-10-15T16:08:35.560Z,13.71
2022-10-15T16:11:04.458Z,13.72
2022-10-15T16:13:32.014Z,13.69
2022-10-15T16:16:01.629Z,13.69
2022-10-15T16:18:28.788Z,13.69
2022-10-15T16:20:55.978Z,13.75
2022-10-15T16:23:22.926Z,13.73
2022-10-15T16:25:50.112Z,13.73
2022-10-15T16:28:17.333Z,13.69
2022-10-15T16:30:44.600Z,13.69
2022-10-15T16:33:11.660Z,13.69
2022-10-15T16:35:38.987Z,13.67
2022-10-15T16:38:06.347Z,13.70
2022-10-15T16:40:33.914Z,13.70
2022-10-15T16:43:01.124Z,13.67
2022-10-15T16:45:28.318Z,13.71
2022-10-15T16:47:55.543Z,13.71
2022-10-15T16:50:22.968Z,13.70
2022-10-15T16:52:49.921Z,13.68
2022-10-15T16:55:19.354Z,13.70
2022-10-15T16:57:46.353Z,13.72
2022-10-15T17:00:14.028Z,13.70
2022-10-15T17:02:41.168Z,13.74
2022-10-15T17:05:11.499Z,13.71
2022-10-15T17:07:38.499Z,13.70
2022-10-15T17:10:12.333Z,13.72
2022-10-15T17:12:43.146Z,13.70
2022-10-15T17:15:11.527Z,13.73
2022-10-15T17:17:39.891Z,13.73
2022-10-15T17:20:09.243Z,13.73
2022-10-15T17:22:37.777Z,13.71
2022-10-15T17:25:05.474Z,13.74
2022-10-15T17:27:34.128Z,13.72
2022-10-15T17:30:04.927Z,13.72
2022-10-15T17:32:32.421Z,13.72
2022-10-15T17:35:03.741Z,13.72
2022-10-15T17:37:32.380Z,13.72
2022-10-15T17:40:00.388Z,13.72
2022-10-15T17:42:30.289Z,13.76
2022-10-15T17:44:58.697Z,13.75
2022-10-15T17:47:26.611Z,13.74
2022-10-15T17:49:55.817Z,13.73
2022-10-15T17:52:23.587Z,13.76
2022-10-15T17:54:54.155Z,13.80
2022-10-15T17:57:21.789Z,13.81
2022-10-15T17:59:51.169Z,13.84
2022-10-15T18:02:21.075Z,13.79
2022-10-15T18:04:48.483Z,13.80
2022-10-15T18:07:20.056Z,13.79
2022-10-15T18:09:51.283Z,13.77
2022-10-15T18:12:19.173Z,13.76
2022-10-15T18:14:46.939Z,13.73
2022-10-15T18:17:24.574Z,13.74
2022-10-15T18:19:52.859Z,13.72
2022-10-15T18:22:21.076Z,13.70
2022-10-15T18:24:52.225Z,13.66
2022-10-15T18:27:21.528Z,13.67
2022-10-15T18:29:52.190Z,13.67
2022-10-15T18:32:20.555Z,13.66
2022-10-15T18:34:48.704Z,13.64
2022-10-15T18:37:17.227Z,13.62
2022-10-15T18:39:45.645Z,13.65
2022-10-15T18:42:16.767Z,13.69
2022-10-15T18:44:44.277Z,13.69
2022-10-15T18:47:15.854Z,13.72
2022-10-15T18:49:45.501Z,13.72
2022-10-15T18:52:28.272Z,13.74
2022-10-15T18:55:06.166Z,13.70
2022-10-15T18:57:34.995Z,13.69
2022-10-15T19:00:03.812Z,13.64
2022-10-15T19:02:31.416Z,13.57
2022-10-15T19:04:59.457Z,13.55
2022-10-15T19:07:30.005Z,13.51
2022-10-15T19:09:58.851Z,13.46
2022-10-15T19:12:27.917Z,13.45
2022-10-15T19:14:55.561Z,13.40
2022-10-15T19:17:24.771Z,13.36
2022-10-15T19:19:52.194Z,13.38
2022-10-15T19:22:19.290Z,13.36
2022-10-15T19:24:46.586Z,13.37
2022-10-15T19:27:13.990Z,13.32
2022-10-15T19:29:41.784Z,13.29
2022-10-15T19:32:08.885Z,13.29
2022-10-15T19:34:36.556Z,13.31
2022-10-15T19:37:03.992Z,13.25
2022-10-15T19:39:37.312Z,13.24
2022-10-15T19:42:05.603Z,13.19
2022-10-15T19:44:34.941Z,13.13
2022-10-15T19:47:02.882Z,13.07
2022-10-15T19:49:34.072Z,13.04
2022-10-15T19:52:01.815Z,12.95
2022-10-15T19:54:30.891Z,12.89
2022-10-15T19:56:58.562Z,12.89
2022-10-15T19:59:26.654Z,12.96
2022-10-15T20:01:56.636Z,12.92
2022-10-15T20:04:24.329Z,12.85
2022-10-15T20:06:54.988Z,12.78
2022-10-15T20:09:22.522Z,12.72
2022-10-15T20:11:50.129Z,12.64
2022-10-15T20:14:18.084Z,12.60
2022-10-15T20:16:45.162Z,12.57
2022-10-15T20:19:12.708Z,12.51
2022-10-15T20:21:42.142Z,12.47
2022-10-15T20:24:09.457Z,12.46
2022-10-15T20:26:36.571Z,12.54
2022-10-15T20:29:03.815Z,12.53
2022-10-15T20:31:33.174Z,12.46
2022-10-15T20:34:01.874Z,12.42
2022-10-15T20:36:29.017Z,12.37
2022-10-15T20:38:58.235Z,12.33
2022-10-15T20:41:27.423Z,12.32
2022-10-15T20:43:56.170Z,12.23
2022-10-15T20:46:31.684Z,12.23
2022-10-15T20:49:02.213Z,12.16
2022-10-15T20:51:33.040Z,12.20
2022-10-15T20:54:00.446Z,12.26
2022-10-15T20:56:28.046Z,12.24
2022-10-15T20:58:55.176Z,12.16
2022-10-15T21:01:22.295Z,12.19
2022-10-15T21:03:49.455Z,12.08
2022-10-15T21:06:16.503Z,11.99
2022-10-15T21:08:43.742Z,11.88
2022-10-15T21:11:13.289Z,11.77
2022-10-15T21:13:40.543Z,11.74
2022-10-15T21:16:08.069Z,11.68
2022-10-15T21:18:36.060Z,11.59
2022-10-15T21:21:08.201Z,11.50
2022-10-15T21:23:35.984Z,11.52
2022-10-15T21:26:13.566Z,11.54
2022-10-15T21:28:41.124Z,11.48
2022-10-15T21:31:13.061Z,11.48
2022-10-15T21:33:40.807Z,11.55
2022-10-15T21:36:13.363Z,11.55
2022-10-15T21:38:41.856Z,11.53
2022-10-15T21:41:09.034Z,11.64
2022-10-15T21:43:36.338Z,11.74
2022-10-15T21:46:11.291Z,11.82
2022-10-15T21:48:38.998Z,11.85
2022-10-15T21:51:10.340Z,11.86
2022-10-15T21:53:37.832Z,11.86
2022-10-15T21:56:05.744Z,11.81
2022-10-15T21:58:32.811Z,11.78
2022-10-15T22:01:09.137Z,11.77
2022-10-15T22:03:36.785Z,11.80
2022-10-15T22:06:07.701Z,11.80
2022-10-15T22:08:35.550Z,11.79
2022-10-15T22:11:14.355Z,11.77
2022-10-15T22:13:44.205Z,11.76
2022-10-15T22:16:12.203Z,11.71
2022-10-15T22:18:43.672Z,11.73
2022-10-15T22:21:16.668Z,11.71
2022-10-15T22:23:56.128Z,11.69
2022-10-15T22:26:26.910Z,11.76
2022-10-15T22:28:56.474Z,11.69
2022-10-15T22:31:24.376Z,11.66
2022-10-15T22:33:51.727Z,11.65
2022-10-15T22:36:21.332Z,11.57
2022-10-15T22:38:52.252Z,11.46
2022-10-15T22:41:19.577Z,11.40
2022-10-15T22:43:46.956Z,11.33
2022-10-15T22:46:14.207Z,11.29
2022-10-15T22:48:42.602Z,11.31
2022-10-15T22:51:14.930Z,11.30
2022-10-15T22:53:42.705Z,11.26
2022-10-15T22:56:16.098Z,11.25
2022-10-15T22:58:43.783Z,11.29
2022-10-15T23:01:10.864Z,11.29
2022-10-15T23:03:39.666Z,11.23
2022-10-15T23:06:06.804Z,11.19
2022-10-15T23:08:35.137Z,11.22
2022-10-15T23:11:13.795Z,11.20
2022-10-15T23:13:42.429Z,11.20
2022-10-15T23:16:15.927Z,11.18
2022-10-15T23:18:45.461Z,11.18
2022-10-15T23:21:17.810Z,11.14
2022-10-15T23:23:45.753Z,11.10
2022-10-15T23:26:15.062Z,11.01
2022-10-15T23:28:43.569Z,11.01
2022-10-15T23:31:18.461Z,10.97
2022-10-15T23:33:48.410Z,11.01
2022-10-15T23:36:18.302Z,10.94
2022-10-15T23:38:49.043Z,10.91
2022-10-15T23:41:16.012Z,10.84
2022-10-15T23:43:46.544Z,10.81
2022-10-15T23:46:14.652Z,10.74
2022-10-15T23:48:41.804Z,10.67
2022-10-15T23:51:12.782Z,10.63
2022-10-15T23:53:40.076Z,10.66
2022-10-15T23:56:07.117Z,10.68
2022-10-15T23:58:34.871Z,10.68
